Time;durP1;ratioP1;P1;durP2;ratioP2;P2;SDS_P1;SDS_P2;PMS_P1;PMS_P2;Temp;Humidity;BMP_temperature;BMP_pressure;BME280_temperature;BME280_humidity;BME280_pressure;Samples;Min_cycle;Max_cycle;Signal;HPM_P1;HPM_P2
2023/01/05 00:01:38;;;;;;;2.97;1.97;;;22.00;62.40;;;;;;4929151;29;20466;-73
2023/01/05 00:04:06;;;;;;;5.50;2.60;;;22.00;62.30;;;;;;4935743;29;20447;-73
2023/01/05 00:06:36;;;;;;;4.60;2.90;;;22.00;62.20;;;;;;4934033;29;20820;-73
2023/01/05 00:09:05;;;;;;;3.80;2.50;;;22.00;62.20;;;;;;4930312;29;20467;-73
2023/01/05 00:22:46;;;;;;;5.47;2.47;;;22.00;62.20;;;;;;4928258;29;21017;-73
2023/01/05 00:25:16;;;;;;;3.43;2.33;;;22.00;62.20;;;;;;4932807;29;20515;-74
2023/01/05 00:27:46;;;;;;;5.30;2.57;;;22.00;62.10;;;;;;4930898;29;20545;-73
2023/01/05 00:30:18;;;;;;;3.97;2.70;;;22.00;62.20;;;;;;4924902;29;20453;-73
2023/01/05 00:32:47;;;;;;;3.13;1.90;;;21.90;62.20;;;;;;4927501;29;20537;-73
2023/01/05 00:35:16;;;;;;;4.77;2.63;;;21.90;62.10;;;;;;4933513;29;20508;-73
2023/01/05 00:37:45;;;;;;;5.50;2.60;;;21.90;62.10;;;;;;4937035;29;20478;-73
2023/01/05 00:40:15;;;;;;;2.37;1.60;;;21.90;62.10;;;;;;4937252;29;20526;-73
2023/01/05 00:42:44;;;;;;;3.03;2.00;;;21.90;62.10;;;;;;4924142;29;20491;-73
2023/01/05 00:45:14;;;;;;;2.80;1.93;;;21.90;62.10;;;;;;4921626;29;20464;-73
2023/01/05 00:47:44;;;;;;;3.47;2.03;;;21.90;62.20;;;;;;4936722;29;20475;-73
2023/01/05 00:50:14;;;;;;;3.90;2.07;;;21.90;62.10;;;;;;4935288;29;20487;-75
2023/01/05 00:52:43;;;;;;;3.07;1.70;;;21.90;62.10;;;;;;4934771;29;20512;-74
2023/01/05 00:55:11;;;;;;;2.20;1.90;;;21.90;62.10;;;;;;4936203;29;20478;-73
2023/01/05 00:57:40;;;;;;;2.70;1.80;;;21.90;62.20;;;;;;4934574;29;20543;-73
2023/01/05 01:00:13;;;;;;;3.37;1.30;;;21.90;62.20;;;;;;4936610;29;20492;-73
2023/01/05 01:02:43;;;;;;;2.60;1.60;;;21.80;62.10;;;;;;4931208;29;20495;-73
2023/01/05 01:05:11;;;;;;;2.20;2.00;;;21.90;62.10;;;;;;4937288;29;20480;-73
2023/01/05 01:07:40;;;;;;;1.83;1.70;;;21.90;62.10;;;;;;4935197;29;20476;-73
2023/01/05 01:10:09;;;;;;;2.00;1.37;;;21.90;62.20;;;;;;4935323;29;20463;-73
2023/01/05 01:12:38;;;;;;;3.13;1.60;;;21.90;62.10;;;;;;4934537;29;20958;-73
2023/01/05 01:15:08;;;;;;;1.60;1.50;;;21.90;62.10;;;;;;4936988;29;20452;-74
2023/01/05 01:17:36;;;;;;;1.30;1.13;;;21.90;62.10;;;;;;4935352;29;20482;-73
2023/01/05 01:20:07;;;;;;;3.73;2.83;;;21.90;62.10;;;;;;4927853;29;20506;-73
2023/01/05 01:22:36;;;;;;;3.00;1.67;;;21.90;62.10;;;;;;4936615;29;20488;-73
2023/01/05 01:25:05;;;;;;;1.80;1.30;;;22.00;62.00;;;;;;4935823;29;20581;-74
2023/01/05 01:27:33;;;;;;;1.93;1.47;;;22.00;62.00;;;;;;4936546;29;20472;-73
2023/01/05 01:30:01;;;;;;;1.57;1.27;;;22.00;62.00;;;;;;4936416;29;20433;-72
2023/01/05 01:32:30;;;;;;;1.87;1.77;;;22.00;62.00;;;;;;4936502;29;20491;-72
2023/01/05 01:34:58;;;;;;;3.90;1.50;;;22.00;62.00;;;;;;4935463;29;20449;-72
2023/01/05 01:37:27;;;;;;;1.20;1.10;;;22.00;62.00;;;;;;4932552;29;20853;-72
2023/01/05 01:39:57;;;;;;;3.93;1.70;;;22.00;62.00;;;;;;4926103;29;20505;-73
2023/01/05 01:42:25;;;;;;;2.40;1.30;;;22.00;62.00;;;;;;4924168;29;20997;-72
2023/01/05 01:44:57;;;;;;;1.40;1.20;;;22.00;62.00;;;;;;4934137;29;20471;-72
2023/01/05 01:47:42;;;;;;;1.63;1.30;;;22.00;62.00;;;;;;4933202;29;20967;-72
2023/01/05 01:50:15;;;;;;;2.80;1.10;;;22.00;62.00;;;;;;4929457;29;20814;-72
2023/01/05 01:52:48;;;;;;;1.20;1.10;;;22.00;62.00;;;;;;4917092;29;20433;-73
2023/01/05 01:55:18;;;;;;;3.53;1.33;;;22.00;62.00;;;;;;4916934;29;20483;-72
2023/01/05 01:57:47;;;;;;;1.30;1.10;;;22.00;62.00;;;;;;4923736;29;20507;-73
2023/01/05 02:00:20;;;;;;;1.23;1.00;;;22.00;62.00;;;;;;4931978;29;20472;-73
2023/01/05 02:02:55;;;;;;;1.27;1.00;;;22.00;62.00;;;;;;4931216;29;20472;-74
2023/01/05 02:05:28;;;;;;;2.53;1.70;;;22.00;62.00;;;;;;4927610;29;20448;-73
2023/01/05 02:07:58;;;;;;;2.33;1.30;;;22.00;62.00;;;;;;4928205;29;20897;-73
2023/01/05 02:10:39;;;;;;;2.10;1.20;;;22.00;61.90;;;;;;4935054;29;20928;-73
2023/01/05 02:13:23;;;;;;;2.80;1.43;;;22.00;62.00;;;;;;4929786;29;20528;-73
2023/01/05 02:16:07;;;;;;;1.80;1.30;;;22.00;62.00;;;;;;4914046;29;21161;-73
2023/01/05 02:18:47;;;;;;;0.90;0.90;;;22.00;62.00;;;;;;4921118;29;20547;-74
2023/01/05 02:21:22;;;;;;;1.47;1.37;;;22.00;62.00;;;;;;4935611;29;20435;-73
2023/01/05 02:24:29;;;;;;;1.00;1.00;;;22.00;62.00;;;;;;4933659;29;20460;-73
2023/01/05 02:27:20;;;;;;;1.50;1.40;;;22.00;62.00;;;;;;4924598;29;20483;-73
2023/01/05 02:30:20;;;;;;;1.37;1.13;;;22.00;62.00;;;;;;4935328;29;20466;-74
2023/01/05 02:32:57;;;;;;;1.17;1.07;;;22.00;62.10;;;;;;4933913;29;20999;-73
2023/01/05 02:35:35;;;;;;;2.63;1.17;;;22.00;62.10;;;;;;4932980;29;20458;-73
2023/01/05 02:38:10;;;;;;;1.30;1.20;;;22.00;62.00;;;;;;4933674;29;20930;-73
2023/01/05 02:40:44;;;;;;;1.37;0.87;;;22.00;62.00;;;;;;4933823;29;20487;-73
2023/01/05 02:43:15;;;;;;;1.37;1.20;;;22.00;62.00;;;;;;4933190;29;20451;-73
2023/01/05 02:45:44;;;;;;;1.30;1.20;;;22.00;62.00;;;;;;4930532;29;20635;-74
2023/01/05 02:48:16;;;;;;;0.80;0.80;;;22.00;62.00;;;;;;4915061;29;20481;-73
2023/01/05 02:50:49;;;;;;;0.63;0.60;;;22.00;62.00;;;;;;4914691;29;20515;-73
2023/01/05 02:53:21;;;;;;;1.27;0.93;;;22.00;61.90;;;;;;4915927;29;20479;-73
2023/01/05 02:55:54;;;;;;;1.60;0.90;;;22.00;61.90;;;;;;4920295;29;20484;-73
2023/01/05 02:58:30;;;;;;;0.80;0.80;;;22.00;61.90;;;;;;4932785;29;20462;-73
2023/01/05 03:01:03;;;;;;;1.60;1.20;;;22.00;61.90;;;;;;4933268;29;20538;-73
2023/01/05 03:03:37;;;;;;;1.37;1.07;;;22.00;61.90;;;;;;4931751;29;20464;-73
2023/01/05 03:06:11;;;;;;;1.70;1.20;;;22.00;62.00;;;;;;4933990;29;20455;-73
2023/01/05 03:08:48;;;;;;;3.00;0.97;;;22.00;62.00;;;;;;4933271;29;20503;-73
2023/01/05 03:14:10;;;;;;;1.43;1.07;;;22.00;62.00;;;;;;4929979;29;20565;-72
2023/01/05 03:16:40;;;;;;;0.97;0.83;;;22.00;62.00;;;;;;4918064;29;20943;-73
2023/01/05 03:36:16;;;;;;;0.70;0.70;;;22.00;61.90;;;;;;4934120;29;20791;-73
2023/01/05 03:38:48;;;;;;;1.73;1.00;;;22.00;61.90;;;;;;4917433;29;20473;-72
2023/01/05 03:41:18;;;;;;;1.73;0.87;;;22.00;61.90;;;;;;4918435;29;20472;-73
2023/01/05 03:43:47;;;;;;;0.80;0.73;;;22.00;61.90;;;;;;4933428;29;20461;-73
2023/01/05 03:46:19;;;;;;;0.80;0.80;;;22.00;61.90;;;;;;4919222;29;20461;-73
2023/01/05 03:48:48;;;;;;;0.60;0.60;;;22.00;61.90;;;;;;4933490;29;20504;-72
2023/01/05 03:51:20;;;;;;;1.07;0.80;;;22.00;61.90;;;;;;4937396;29;20474;-72
2023/01/05 03:53:48;;;;;;;0.70;0.63;;;22.00;61.90;;;;;;4936935;29;20835;-73
2023/01/05 03:56:17;;;;;;;1.00;0.90;;;22.00;61.90;;;;;;4936940;29;20460;-73
2023/01/05 03:58:45;;;;;;;3.10;0.63;;;22.00;61.90;;;;;;4937893;29;20439;-74
2023/01/05 04:01:14;;;;;;;1.10;1.00;;;22.10;61.90;;;;;;4935473;29;20955;-73
2023/01/05 04:03:43;;;;;;;0.57;0.57;;;22.10;61.90;;;;;;4931575;29;20577;-73
2023/01/05 04:06:12;;;;;;;0.93;0.70;;;22.10;61.80;;;;;;4936075;29;20448;-73
2023/01/05 04:08:41;;;;;;;1.53;0.50;;;22.10;61.80;;;;;;4933429;29;20526;-73
2023/01/05 04:11:12;;;;;;;0.57;0.50;;;22.10;61.70;;;;;;4928105;29;20479;-74
2023/01/05 04:13:41;;;;;;;0.93;0.50;;;22.10;61.70;;;;;;4926840;29;20492;-73
2023/01/05 04:16:09;;;;;;;1.37;0.70;;;22.10;61.70;;;;;;4930263;29;20471;-72
2023/01/05 04:18:40;;;;;;;0.73;0.50;;;22.00;61.70;;;;;;4947583;29;20791;-77
2023/01/05 04:21:09;;;;;;;0.63;0.63;;;22.00;61.70;;;;;;4933779;29;20457;-73
2023/01/05 04:23:40;;;;;;;0.70;0.60;;;22.00;61.70;;;;;;4952248;29;20537;-73
2023/01/05 04:26:10;;;;;;;0.50;0.50;;;22.00;61.80;;;;;;4936590;29;20979;-73
2023/01/05 04:28:38;;;;;;;1.80;0.93;;;22.00;61.80;;;;;;4937296;29;20585;-73
2023/01/05 04:31:09;;;;;;;0.47;0.47;;;22.00;61.80;;;;;;4934693;29;20483;-73
2023/01/05 04:33:38;;;;;;;1.33;0.73;;;22.00;61.80;;;;;;4928596;29;20961;-72
2023/01/05 04:36:08;;;;;;;1.23;0.80;;;22.00;61.80;;;;;;4926264;29;20491;-72
2023/01/05 04:38:36;;;;;;;0.50;0.50;;;22.00;61.80;;;;;;4931775;29;20463;-72
2023/01/05 04:41:08;;;;;;;0.40;0.40;;;22.00;61.80;;;;;;4917369;29;20523;-74
2023/01/05 04:43:38;;;;;;;0.60;0.50;;;22.00;61.80;;;;;;4926856;29;20779;-72
2023/01/05 04:46:07;;;;;;;0.87;0.87;;;22.00;61.80;;;;;;4936312;29;20540;-73
2023/01/05 04:48:36;;;;;;;0.50;0.50;;;22.00;61.70;;;;;;4935294;29;20480;-73
2023/01/05 04:51:05;;;;;;;0.50;0.50;;;22.00;61.70;;;;;;4935591;29;20463;-73
2023/01/05 04:53:37;;;;;;;0.60;0.60;;;22.00;61.70;;;;;;4935366;29;20456;-72
2023/01/05 04:56:07;;;;;;;0.77;0.50;;;22.00;61.80;;;;;;4935803;29;20464;-73
2023/01/05 04:58:41;;;;;;;0.77;0.70;;;22.00;61.70;;;;;;4935790;29;20463;-73
2023/01/05 05:01:09;;;;;;;1.43;0.60;;;22.00;61.70;;;;;;4934084;29;20452;-73
2023/01/05 05:03:40;;;;;;;0.53;0.53;;;22.00;61.70;;;;;;4931342;29;20487;-73
2023/01/05 05:06:11;;;;;;;0.57;0.53;;;22.00;61.80;;;;;;4933626;29;20468;-73
2023/01/05 05:08:39;;;;;;;0.40;0.37;;;22.00;61.80;;;;;;4933243;29;20540;-74
2023/01/05 05:11:09;;;;;;;0.50;0.50;;;22.00;61.80;;;;;;4929752;29;21009;-73
2023/01/05 05:13:41;;;;;;;0.43;0.40;;;22.00;61.80;;;;;;4928337;29;21007;-73
2023/01/05 05:16:09;;;;;;;0.50;0.50;;;22.00;61.80;;;;;;4928235;29;20511;-73
2023/01/05 05:18:39;;;;;;;0.50;0.50;;;22.00;61.80;;;;;;4929462;29;20548;-73
2023/01/05 05:21:11;;;;;;;0.40;0.40;;;22.00;61.80;;;;;;4933828;29;21027;-72
2023/01/05 05:23:40;;;;;;;0.70;0.60;;;22.00;61.90;;;;;;4935058;29;20495;-72
2023/01/05 05:26:08;;;;;;;0.50;0.40;;;22.00;61.80;;;;;;4935315;29;20467;-73
2023/01/05 05:28:36;;;;;;;0.40;0.40;;;22.00;61.90;;;;;;4935096;29;20511;-74
2023/01/05 05:31:06;;;;;;;0.60;0.50;;;22.00;61.80;;;;;;4923415;29;20468;-73
2023/01/05 05:33:36;;;;;;;0.60;0.43;;;22.10;61.80;;;;;;4936523;29;20436;-72
2023/01/05 05:36:05;;;;;;;0.60;0.60;;;22.10;61.80;;;;;;4930113;29;20901;-74
2023/01/05 05:38:34;;;;;;;0.33;0.33;;;22.10;61.80;;;;;;4928306;29;20451;-73
2023/01/05 05:41:02;;;;;;;0.57;0.50;;;22.10;61.80;;;;;;4935183;29;20519;-73
2023/01/05 05:43:30;;;;;;;0.60;0.60;;;22.10;61.80;;;;;;4931093;29;20464;-73
2023/01/05 05:45:58;;;;;;;0.57;0.50;;;22.10;61.70;;;;;;4935191;29;20496;-74
2023/01/05 05:48:28;;;;;;;0.50;0.50;;;22.10;61.70;;;;;;4932200;29;20502;-73
2023/01/05 05:50:56;;;;;;;0.60;0.60;;;22.10;61.60;;;;;;4931008;29;20453;-72
2023/01/05 05:53:24;;;;;;;0.50;0.50;;;22.10;61.60;;;;;;4935171;29;20478;-73
2023/01/05 05:55:52;;;;;;;0.60;0.40;;;22.10;61.60;;;;;;4927583;29;20472;-73
2023/01/05 05:58:20;;;;;;;0.70;0.53;;;22.10;61.60;;;;;;4931449;29;20475;-73
2023/01/05 06:00:48;;;;;;;0.37;0.33;;;22.10;61.60;;;;;;4930225;29;20866;-73
2023/01/05 06:03:19;;;;;;;0.53;0.40;;;22.10;61.60;;;;;;4935196;29;20535;-73
2023/01/05 06:05:48;;;;;;;0.40;0.40;;;22.10;61.60;;;;;;4934669;29;20448;-73
2023/01/05 06:08:16;;;;;;;0.50;0.50;;;22.00;61.60;;;;;;4934727;29;20936;-73
2023/01/05 06:10:45;;;;;;;0.83;0.40;;;22.00;61.60;;;;;;4934923;29;20532;-73
2023/01/05 06:13:13;;;;;;;0.50;0.50;;;22.00;61.60;;;;;;4929274;29;20860;-73
2023/01/05 06:15:42;;;;;;;0.50;0.50;;;22.00;61.60;;;;;;4935018;29;20459;-73
2023/01/05 06:18:10;;;;;;;0.40;0.30;;;22.00;61.60;;;;;;4935140;29;20532;-73
2023/01/05 06:20:39;;;;;;;0.87;0.50;;;22.00;61.70;;;;;;4930146;29;20908;-73
2023/01/05 06:23:09;;;;;;;0.40;0.30;;;21.90;61.70;;;;;;4933341;29;20511;-73
2023/01/05 06:25:37;;;;;;;0.87;0.60;;;21.90;61.70;;;;;;4934562;29;20546;-72
2023/01/05 06:28:05;;;;;;;0.50;0.50;;;21.90;61.70;;;;;;4926253;29;20832;-73
2023/01/05 06:30:33;;;;;;;0.40;0.30;;;21.90;61.80;;;;;;4934059;29;20484;-73
2023/01/05 06:33:01;;;;;;;0.50;0.50;;;21.80;61.80;;;;;;4933273;29;20467;-73
2023/01/05 06:35:29;;;;;;;0.50;0.50;;;21.80;61.80;;;;;;4924223;29;20452;-72
2023/01/05 06:37:57;;;;;;;0.30;0.30;;;21.80;61.80;;;;;;4932399;29;20547;-73
2023/01/05 06:40:27;;;;;;;0.60;0.40;;;21.80;61.80;;;;;;4930646;29;20492;-73
2023/01/05 06:42:55;;;;;;;0.40;0.40;;;21.80;61.80;;;;;;4916253;29;20547;-72
2023/01/05 06:45:23;;;;;;;0.40;0.37;;;21.80;61.90;;;;;;4929130;29;21018;-73
2023/01/05 06:47:51;;;;;;;0.60;0.50;;;21.80;61.90;;;;;;4929577;29;20471;-73
2023/01/05 06:50:20;;;;;;;0.50;0.43;;;21.90;61.90;;;;;;4932980;29;20928;-73
2023/01/05 06:52:48;;;;;;;0.80;0.60;;;21.90;61.80;;;;;;4935042;29;20882;-72
2023/01/05 06:55:16;;;;;;;0.40;0.40;;;21.90;61.80;;;;;;4932986;29;20464;-73
2023/01/05 06:57:45;;;;;;;0.43;0.43;;;21.90;61.70;;;;;;4933447;29;20504;-72
2023/01/05 07:00:14;;;;;;;0.70;0.70;;;21.90;61.70;;;;;;4926498;29;20951;-73
2023/01/05 07:02:43;;;;;;;1.13;0.77;;;21.90;61.70;;;;;;4933768;29;20503;-73
2023/01/05 07:05:11;;;;;;;1.00;0.60;;;22.00;61.60;;;;;;4934128;29;20487;-72
2023/01/05 07:07:39;;;;;;;1.30;1.03;;;22.00;61.60;;;;;;4927958;29;20473;-79
2023/01/05 07:10:08;;;;;;;1.13;1.00;;;22.00;61.60;;;;;;4933748;29;20559;-74
2023/01/05 07:12:36;;;;;;;1.50;0.80;;;22.00;61.50;;;;;;4929669;29;20615;-74
2023/01/05 07:15:08;;;;;;;0.70;0.70;;;22.00;61.50;;;;;;4927375;29;20464;-74
2023/01/05 07:17:36;;;;;;;1.20;1.10;;;22.00;61.60;;;;;;4927849;29;21458;-75
2023/01/05 07:20:05;;;;;;;1.80;1.00;;;22.00;61.60;;;;;;4926150;29;20463;-73
2023/01/05 07:22:33;;;;;;;1.67;1.37;;;22.00;61.70;;;;;;4930683;29;20491;-74
2023/01/05 07:25:01;;;;;;;1.70;1.07;;;22.00;61.80;;;;;;4924540;29;20460;-73
2023/01/05 07:27:30;;;;;;;1.70;0.97;;;22.00;61.90;;;;;;4930374;29;20546;-70
2023/01/05 07:29:58;;;;;;;4.20;1.30;;;22.00;62.00;;;;;;4928944;29;20484;-73
2023/01/05 07:32:28;;;;;;;1.80;1.10;;;22.00;62.10;;;;;;4927049;29;20472;-72
2023/01/05 07:34:56;;;;;;;2.93;1.60;;;22.00;62.30;;;;;;4931778;29;20856;-73
2023/01/05 07:37:24;;;;;;;1.40;1.30;;;22.00;62.40;;;;;;4923619;29;21019;-73
2023/01/05 07:39:52;;;;;;;1.63;1.43;;;22.00;62.40;;;;;;4922242;29;20456;-73
2023/01/05 07:42:21;;;;;;;2.47;1.70;;;22.00;62.60;;;;;;4920092;29;20846;-73
2023/01/05 07:44:51;;;;;;;2.63;1.60;;;22.00;62.70;;;;;;4932978;29;20479;-74
2023/01/05 07:47:19;;;;;;;1.77;1.50;;;22.00;62.80;;;;;;4919037;29;20503;-74
2023/01/05 07:49:48;;;;;;;1.37;1.27;;;22.00;63.00;;;;;;4920256;29;20891;-73
2023/01/05 07:52:17;;;;;;;3.83;1.87;;;22.00;62.90;;;;;;4929889;29;20461;-73
2023/01/05 07:54:45;;;;;;;4.93;1.53;;;22.00;62.80;;;;;;4926918;29;20460;-72
2023/01/05 07:57:13;;;;;;;2.73;1.73;;;22.00;62.90;;;;;;4922768;29;20528;-73
2023/01/05 07:59:41;;;;;;;2.77;1.73;;;22.00;62.90;;;;;;4923151;29;20472;-73
2023/01/05 08:02:10;;;;;;;3.53;2.00;;;22.00;62.90;;;;;;4926693;29;20519;-72
2023/01/05 08:04:38;;;;;;;6.00;2.60;;;22.00;62.90;;;;;;4927927;29;20989;-73
2023/01/05 08:07:10;;;;;;;3.93;2.00;;;22.00;62.90;;;;;;4937670;29;20454;-72
2023/01/05 08:12:24;;;;;;;5.00;2.37;;;22.00;63.00;;;;;;4924470;29;20488;-74
2023/01/05 08:14:52;;;;;;;4.47;2.53;;;22.10;63.00;;;;;;4928586;29;20461;-73
2023/01/05 08:17:21;;;;;;;3.90;1.63;;;22.10;63.00;;;;;;4934268;29;20498;-75
2023/01/05 08:19:49;;;;;;;4.03;1.87;;;22.10;62.90;;;;;;4934785;29;20519;-75
2023/01/05 08:22:18;;;;;;;3.50;2.20;;;22.10;62.90;;;;;;4936818;29;20457;-75
2023/01/05 08:24:46;;;;;;;8.27;2.00;;;22.10;62.90;;;;;;4928446;29;20954;-75
2023/01/05 08:27:15;;;;;;;4.70;2.27;;;22.10;62.80;;;;;;4925295;29;20884;-75
2023/01/05 08:29:43;;;;;;;3.60;2.17;;;22.20;62.80;;;;;;4930111;29;20466;-75
2023/01/05 08:32:11;;;;;;;3.77;2.60;;;22.20;62.80;;;;;;4931128;29;20483;-75
2023/01/05 08:34:39;;;;;;;6.53;3.17;;;22.20;62.70;;;;;;4925103;29;20802;-75
2023/01/05 08:37:08;;;;;;;4.20;1.80;;;22.20;62.70;;;;;;4927180;29;20967;-75
2023/01/05 08:39:37;;;;;;;5.33;1.60;;;22.20;62.70;;;;;;4923827;29;20463;-75
2023/01/05 08:42:05;;;;;;;4.17;2.20;;;22.20;62.70;;;;;;4927666;29;20520;-74
2023/01/05 08:44:33;;;;;;;4.03;1.80;;;22.20;62.70;;;;;;4920316;29;20932;-72
2023/01/05 08:47:02;;;;;;;3.13;2.20;;;22.10;62.80;;;;;;4920315;29;20548;-72
2023/01/05 08:49:30;;;;;;;3.87;2.40;;;22.10;62.80;;;;;;4919771;29;20491;-73
2023/01/05 08:51:58;;;;;;;3.80;2.20;;;22.10;62.80;;;;;;4926624;29;20557;-76
2023/01/05 08:54:26;;;;;;;7.77;2.97;;;22.10;62.80;;;;;;4932934;29;20990;-74
2023/01/05 08:56:56;;;;;;;2.77;2.50;;;22.10;62.80;;;;;;4930332;29;20454;-73
2023/01/05 08:59:24;;;;;;;2.00;1.70;;;22.10;62.80;;;;;;4933238;29;20472;-73
2023/01/05 09:01:52;;;;;;;7.80;2.13;;;22.10;62.80;;;;;;4932262;29;20989;-74
2023/01/05 09:04:20;;;;;;;2.53;1.90;;;22.00;62.80;;;;;;4927214;29;20460;-73
2023/01/05 09:06:48;;;;;;;4.23;2.30;;;22.00;62.90;;;;;;4923773;29;20506;-73
2023/01/05 09:09:17;;;;;;;6.00;2.20;;;22.00;63.20;;;;;;4934126;29;20550;-73
2023/01/05 09:11:45;;;;;;;5.43;2.30;;;22.00;63.50;;;;;;4930205;29;20472;-73
2023/01/05 09:14:14;;;;;;;4.10;2.10;;;22.00;63.50;;;;;;4928028;29;20490;-72
2023/01/05 09:16:42;;;;;;;1.97;1.80;;;22.00;63.40;;;;;;4932620;29;20467;-73
2023/01/05 09:19:31;;;;;;;5.37;2.30;;;22.00;63.40;;;;;;4931509;29;20463;-70
2023/01/05 09:21:59;;;;;;;1.77;1.57;;;22.00;63.40;;;;;;4928489;29;20499;-75
2023/01/05 09:24:27;;;;;;;2.40;1.80;;;22.00;63.30;;;;;;4931452;29;20515;-74
2023/01/05 09:26:57;;;;;;;2.53;2.30;;;22.10;63.20;;;;;;4933207;29;21024;-73
2023/01/05 09:29:26;;;;;;;4.07;2.27;;;22.10;63.20;;;;;;4935880;29;20500;-73
2023/01/05 09:31:54;;;;;;;4.80;1.60;;;22.10;63.20;;;;;;4932476;29;20522;-72
2023/01/05 09:34:22;;;;;;;3.17;1.70;;;22.20;63.10;;;;;;4936537;29;20861;-73
2023/01/05 09:36:51;;;;;;;2.70;1.87;;;22.20;63.10;;;;;;4934275;29;20455;-72
2023/01/05 09:39:19;;;;;;;3.30;2.17;;;22.20;63.00;;;;;;4935307;29;20448;-73
2023/01/05 09:41:49;;;;;;;4.33;1.80;;;22.20;62.90;;;;;;4936313;29;20500;-73
2023/01/05 09:44:29;;;;;;;3.67;1.93;;;22.30;62.80;;;;;;4936080;29;20889;-73
2023/01/05 09:47:02;;;;;;;2.63;1.57;;;22.30;62.70;;;;;;4935795;29;20431;-72
2023/01/05 09:49:32;;;;;;;1.97;1.63;;;22.30;62.60;;;;;;4934543;29;20454;-72
2023/01/05 09:52:02;;;;;;;4.07;2.27;;;22.30;62.60;;;;;;4933850;29;20471;-73
2023/01/05 09:54:33;;;;;;;2.87;2.33;;;22.30;62.50;;;;;;4935401;29;20531;-73
2023/01/05 09:57:03;;;;;;;3.40;2.20;;;22.30;62.50;;;;;;4930063;29;20511;-73
2023/01/05 09:59:42;;;;;;;4.63;2.27;;;22.30;62.50;;;;;;4916306;29;20453;-73
2023/01/05 10:02:18;;;;;;;2.60;1.40;;;22.30;62.50;;;;;;4914699;29;20449;-72
2023/01/05 10:04:47;;;;;;;2.43;1.80;;;22.30;62.50;;;;;;4934384;29;20433;-72
2023/01/05 10:07:30;;;;;;;3.57;2.43;;;22.30;62.50;;;;;;4934443;29;20900;-72
2023/01/05 10:10:05;;;;;;;2.73;1.40;;;22.30;62.50;;;;;;4924300;29;20972;-73
2023/01/05 10:15:34;;;;;;;8.20;2.20;;;22.30;62.60;;;;;;4918090;29;20468;-73
2023/01/05 10:18:10;;;;;;;5.20;1.50;;;22.30;62.60;;;;;;4931384;29;20525;-72
2023/01/05 10:20:48;;;;;;;3.20;1.57;;;22.30;62.60;;;;;;4933028;29;20544;-72
2023/01/05 10:23:27;;;;;;;1.60;1.40;;;22.30;62.60;;;;;;4934434;29;20462;-72
2023/01/05 10:26:04;;;;;;;2.30;1.40;;;22.30;62.60;;;;;;4932439;29;20472;-72
2023/01/05 10:28:41;;;;;;;1.77;1.40;;;22.30;62.60;;;;;;4928209;29;20520;-72
2023/01/05 10:31:19;;;;;;;5.07;1.90;;;22.30;62.60;;;;;;4927251;29;20490;-73
2023/01/05 10:33:51;;;;;;;4.67;1.50;;;22.30;62.60;;;;;;4927565;29;20452;-73
2023/01/05 10:36:40;;;;;;;4.23;1.80;;;22.30;62.50;;;;;;4923451;29;20460;-72
2023/01/05 10:39:42;;;;;;;4.40;1.57;;;22.30;62.60;;;;;;4925484;29;20455;-72
2023/01/05 10:42:17;;;;;;;1.40;1.20;;;22.30;62.60;;;;;;4926899;29;20531;-72
2023/01/05 10:44:55;;;;;;;1.63;1.30;;;22.30;62.50;;;;;;4925845;29;20513;-72
2023/01/05 10:47:27;;;;;;;2.80;1.50;;;22.40;62.50;;;;;;4925661;29;20463;-73
2023/01/05 10:49:56;;;;;;;2.40;2.13;;;22.40;62.40;;;;;;4926865;29;20443;-72
2023/01/05 10:52:24;;;;;;;3.07;1.57;;;22.40;62.30;;;;;;4924156;29;20477;-72
2023/01/05 10:54:56;;;;;;;2.00;1.10;;;22.40;62.30;;;;;;4927832;29;20480;-72
2023/01/05 10:57:37;;;;;;;3.90;1.63;;;22.50;62.30;;;;;;4923915;29;20487;-72
2023/01/05 11:00:09;;;;;;;2.93;1.57;;;22.50;62.30;;;;;;4927080;29;20553;-72
2023/01/05 11:02:41;;;;;;;3.23;1.77;;;22.50;62.10;;;;;;4925275;29;20852;-72
2023/01/05 11:05:25;;;;;;;2.60;1.50;;;22.50;62.10;;;;;;4922437;29;20462;-72
2023/01/05 11:07:56;;;;;;;3.57;1.73;;;22.50;62.00;;;;;;4924692;29;20786;-72
2023/01/05 11:10:29;;;;;;;4.00;1.67;;;22.50;62.00;;;;;;4924807;29;20860;-72
2023/01/05 11:13:04;;;;;;;1.57;1.40;;;22.50;62.00;;;;;;4924030;29;21114;-72
2023/01/05 11:15:40;;;;;;;1.97;1.20;;;22.50;62.00;;;;;;4923514;29;20474;-72
2023/01/05 11:18:23;;;;;;;1.70;1.30;;;22.40;62.00;;;;;;4927742;29;20545;-72
2023/01/05 11:21:13;;;;;;;1.57;1.47;;;22.40;62.00;;;;;;4925954;29;20494;-72
2023/01/05 11:23:43;;;;;;;2.80;1.37;;;22.40;62.00;;;;;;4927954;29;20493;-73
2023/01/05 11:26:23;;;;;;;1.37;1.17;;;22.40;62.10;;;;;;4926179;29;20437;-72
2023/01/05 11:29:01;;;;;;;2.13;1.10;;;22.40;62.10;;;;;;4927097;29;20448;-72
2023/01/05 11:31:35;;;;;;;2.57;1.33;;;22.40;62.20;;;;;;4933567;29;20511;-72
2023/01/05 11:34:09;;;;;;;2.00;1.13;;;22.40;62.20;;;;;;4934399;29;20444;-72
2023/01/05 11:36:38;;;;;;;1.17;1.07;;;22.30;62.30;;;;;;4934107;29;20433;-72
2023/01/05 11:39:14;;;;;;;1.70;1.10;;;22.30;62.20;;;;;;4933131;29;20583;-72
2023/01/05 11:41:42;;;;;;;1.50;1.40;;;22.30;62.30;;;;;;4921099;29;20592;-72
2023/01/05 11:44:21;;;;;;;2.83;1.27;;;22.30;62.30;;;;;;4932711;29;20555;-72
2023/01/05 11:46:50;;;;;;;2.03;1.40;;;22.30;62.30;;;;;;4915471;29;20452;-72
2023/01/05 11:49:20;;;;;;;1.40;1.13;;;22.30;62.30;;;;;;4922650;29;20448;-72
2023/01/05 11:51:48;;;;;;;1.33;1.23;;;22.30;62.30;;;;;;4936805;29;20487;-72
2023/01/05 11:54:35;;;;;;;1.63;1.17;;;22.30;62.40;;;;;;4936990;29;20432;-72
2023/01/05 11:57:14;;;;;;;1.80;1.10;;;22.30;62.40;;;;;;4936715;29;20442;-72
2023/01/05 11:59:44;;;;;;;2.50;1.07;;;22.30;62.40;;;;;;4936078;29;20778;-72
2023/01/05 12:02:31;;;;;;;1.10;1.00;;;22.30;62.40;;;;;;4937747;29;20792;-72
2023/01/05 12:05:29;;;;;;;0.87;0.70;;;22.40;62.40;;;;;;4938355;29;20436;-72
2023/01/05 12:08:02;;;;;;;1.73;1.00;;;22.40;62.30;;;;;;4923390;29;20544;-72
2023/01/05 12:10:55;;;;;;;1.20;0.90;;;22.40;62.30;;;;;;4937869;29;20815;-72
2023/01/05 12:13:42;;;;;;;1.70;1.00;;;22.40;62.30;;;;;;4927667;29;20524;-72
2023/01/05 12:16:21;;;;;;;1.50;1.33;;;22.50;62.10;;;;;;4919054;29;20434;-72
2023/01/05 12:19:26;;;;;;;0.90;0.80;;;22.50;62.10;;;;;;4918477;29;20441;-72
2023/01/05 12:22:18;;;;;;;2.20;1.40;;;22.50;62.00;;;;;;4912735;29;20479;-72
2023/01/05 12:25:01;;;;;;;2.40;1.23;;;22.50;62.00;;;;;;4929212;29;20816;-72
2023/01/05 12:27:45;;;;;;;1.20;1.10;;;22.50;62.00;;;;;;4919725;29;20462;-72
2023/01/05 12:30:30;;;;;;;1.80;1.20;;;22.40;62.10;;;;;;4937472;29;20441;-72
2023/01/05 12:33:48;;;;;;;2.53;1.07;;;22.40;62.10;;;;;;4919151;29;20481;-72
2023/01/05 12:36:55;;;;;;;1.33;0.93;;;22.40;62.10;;;;;;4918651;29;20430;-72
2023/01/05 12:39:54;;;;;;;1.70;1.10;;;22.40;62.10;;;;;;4920664;29;20440;-72
2023/01/05 12:42:37;;;;;;;1.63;1.33;;;22.40;62.10;;;;;;4936971;29;20473;-73
2023/01/05 12:45:34;;;;;;;1.07;0.97;;;22.40;62.30;;;;;;4937086;29;20507;-72
2023/01/05 12:48:07;;;;;;;0.80;0.80;;;22.40;62.20;;;;;;4936971;29;20523;-73
2023/01/05 12:50:41;;;;;;;1.27;1.07;;;22.40;62.20;;;;;;4937003;29;20484;-72
2023/01/05 12:53:19;;;;;;;1.27;0.90;;;22.30;62.20;;;;;;4935770;29;20474;-72
2023/01/05 12:55:54;;;;;;;1.10;0.90;;;22.30;62.30;;;;;;4936896;29;20515;-72
2023/01/05 12:58:27;;;;;;;1.00;0.60;;;22.30;62.20;;;;;;4936057;29;20440;-72
2023/01/05 13:00:56;;;;;;;1.20;1.10;;;22.30;62.30;;;;;;4936933;29;20441;-72
2023/01/05 13:03:30;;;;;;;1.10;0.83;;;22.30;62.40;;;;;;4936852;29;20491;-72
2023/01/05 13:06:05;;;;;;;1.03;0.90;;;22.30;62.30;;;;;;4936769;29;20452;-73
2023/01/05 13:08:38;;;;;;;1.23;1.17;;;22.30;62.30;;;;;;4933357;29;20526;-72
2023/01/05 13:11:13;;;;;;;2.93;1.13;;;22.30;62.30;;;;;;4931229;29;20488;-72
2023/01/05 13:13:45;;;;;;;1.73;0.90;;;22.30;62.40;;;;;;4926284;29;20548;-72
2023/01/05 13:16:18;;;;;;;0.90;0.90;;;22.30;62.40;;;;;;4926635;29;20946;-72
2023/01/05 13:18:51;;;;;;;1.10;1.00;;;22.40;62.40;;;;;;4930414;29;20434;-72
2023/01/05 13:21:23;;;;;;;1.27;1.00;;;22.40;62.30;;;;;;4934496;29;20497;-72
2023/01/05 13:23:53;;;;;;;0.70;0.70;;;22.40;62.30;;;;;;4935930;29;20507;-72
2023/01/05 13:26:23;;;;;;;0.87;0.87;;;22.40;62.30;;;;;;4936504;29;20468;-72
2023/01/05 13:28:55;;;;;;;1.13;0.90;;;22.40;62.30;;;;;;4932416;29;20444;-73
2023/01/05 13:31:58;;;;;;;0.90;0.90;;;22.50;62.30;;;;;;4934143;29;20476;-72
2023/01/05 13:35:04;;;;;;;0.80;0.63;;;22.50;62.10;;;;;;4924599;29;20472;-72
2023/01/05 13:37:52;;;;;;;1.30;0.73;;;22.50;62.00;;;;;;4928297;29;20861;-72
2023/01/05 13:40:44;;;;;;;1.13;1.10;;;22.50;62.00;;;;;;4930428;29;20512;-72
2023/01/05 13:44:05;;;;;;;0.97;0.80;;;22.50;62.00;;;;;;4919431;29;20498;-72
2023/01/05 13:46:58;;;;;;;0.90;0.90;;;22.50;62.00;;;;;;4936302;29;20437;-72
2023/01/05 13:49:46;;;;;;;1.03;0.90;;;22.50;62.00;;;;;;4935618;29;20925;-72
2023/01/05 13:52:26;;;;;;;1.43;1.00;;;22.40;62.00;;;;;;4934316;29;20480;-72
2023/01/05 13:55:00;;;;;;;0.80;0.70;;;22.40;62.00;;;;;;4935067;29;20508;-72